This is the latest recevied weather packets stored in our database for station/object IZ2MHJ-3. If no packets are shown the sender has not sent any weather packets the latest 10 day(s).
| Time | Temp. | Humidity | Pressure | Rain* | Wind** | Luminosity | Snow |
|---|---|---|---|---|---|---|---|
| 1788051524 | 22.78° C | 78% | 1016.6 hPa | - | - | - | - |
| 1788050323 | 22.78° C | 78% | 1016.6 hPa | - | - | - | - |
| 1788049123 | 22.22° C | 79% | 1016.5 hPa | - | - | - | - |
| 1788047923 | 23.33° C | 77% | 1016.4 hPa | - | - | - | - |
| 1788046722 | 23.33° C | 75% | 1016.3 hPa | - | - | - | - |
| 1788045522 | 23.33° C | 76% | 1016.2 hPa | - | - | - | - |
| 1788044322 | 23.33° C | 74% | 1016.1 hPa | - | - | - | - |
| 1788043122 | 23.89° C | 73% | 1016 hPa | - | - | - | - |
| 1788041921 | 24.44° C | 72% | 1015.8 hPa | - | - | - | - |
| 1788040721 | 24.44° C | 71% | 1015.7 hPa | - | - | - | - |
| 1788039521 | 25° C | 71% | 1015.5 hPa | - | - | - | - |
| 1788038320 | 25° C | 70% | 1015.3 hPa | - | - | - | - |
| 1788037209 | 25° C | 70% | 1015.2 hPa | - | - | - | - |
| 1788036008 | 25.56° C | 69% | 1015 hPa | - | - | - | - |
| 1788034808 | 25.56° C | 68% | 1015 hPa | - | - | - | - |
| 1788033608 | 25.56° C | 69% | 1014.9 hPa | - | - | - | - |
| 1788032407 | 26.67° C | 65% | 1014.8 hPa | - | - | - | - |
| 1788031207 | 26.67° C | 62% | 1014.5 hPa | - | - | - | - |
| 1788030007 | 28.33° C | 56% | 1014.3 hPa | - | - | - | - |
| 1788028806 | 28.33° C | 51% | 1014.1 hPa | - | - | - | - |
| 1788027606 | 28.33° C | 52% | 1014 hPa | - | - | - | - |
| 1788026406 | 28.89° C | 53% | 1013.9 hPa | - | - | - | - |
| 1788025206 | 30.56° C | 50% | 1013.6 hPa | - | - | - | - |
| 1788024005 | 32.22° C | 45% | 1013.3 hPa | - | - | - | - |
| 1788022805 | 32.22° C | 46% | 1013.4 hPa | - | - | - | - |
* Rain since midnight (hover to see other rain measurements)
** Current wind speed in m/s (hover to see current wind gust speed)